Time;durP1;ratioP1;P1;durP2;ratioP2;P2;SDS_P1;SDS_P2;PMS_P1;PMS_P2;Temp;Humidity;BMP_temperature;BMP_pressure;BME280_temperature;BME280_humidity;BME280_pressure;Samples;Min_cycle;Max_cycle;Signal;HPM_P1;HPM_P2
2021/07/13 00:00:32;;;;;;;;;;;;;;;23.34;59.35;99821.84;2082510;28;20211;-43
2021/07/13 00:01:32;;;;;;;;;;;;;;;23.34;59.20;99832.84;2085031;28;19927;-43
2021/07/13 00:02:32;;;;;;;;;;;;;;;23.34;59.24;99832.84;2079825;28;20359;-42
2021/07/13 00:03:33;;;;;;;;;;;;;;;23.35;59.28;99831.84;2084102;28;20934;-44
2021/07/13 00:04:34;;;;;;;;;;;;;;;23.33;59.28;99820.16;2080887;28;19951;-42
2021/07/13 00:05:35;;;;;;;;;;;;;;;23.33;59.34;99828.41;2079100;28;20305;-42
2021/07/13 00:06:36;;;;;;;;;;;;;;;23.32;59.27;99822.06;2085041;28;19904;-43
2021/07/13 00:07:36;;;;;;;;;;;;;;;23.34;59.21;99827.34;2079811;28;20335;-47
2021/07/13 00:08:38;;;;;;;;;;;;;;;23.32;59.30;99823.94;2076683;28;19917;-42
2021/07/13 00:09:39;;;;;;;;;;;;;;;23.32;59.19;99829.44;2084796;28;19916;-42
2021/07/13 00:10:40;;;;;;;;;;;;;;;23.32;59.36;99823.94;2083289;28;19923;-42
2021/07/13 00:11:41;;;;;;;;;;;;;;;23.31;59.25;99822.22;2078970;28;20472;-42
2021/07/13 00:12:41;;;;;;;;;;;;;;;23.31;59.25;99828.59;2082255;28;19920;-42
2021/07/13 00:13:41;;;;;;;;;;;;;;;23.31;59.39;99830.47;2086591;28;19916;-43
2021/07/13 00:14:42;;;;;;;;;;;;;;;23.29;59.41;99825.16;2080715;28;20162;-42
2021/07/13 00:15:43;;;;;;;;;;;;;;;23.29;59.29;99827.91;2080732;28;20386;-42
2021/07/13 00:16:44;;;;;;;;;;;;;;;23.30;59.33;99831.53;2081278;28;20270;-42
2021/07/13 00:17:45;;;;;;;;;;;;;;;23.29;59.22;99835.31;2085969;28;19920;-43
2021/07/13 00:18:45;;;;;;;;;;;;;;;23.28;59.29;99833.59;2084068;28;19916;-43
2021/07/13 00:19:45;;;;;;;;;;;;;;;23.28;59.27;99828.09;2085648;28;19919;-42
2021/07/13 00:20:45;;;;;;;;;;;;;;;23.29;59.30;99825.16;2084661;28;19920;-42
2021/07/13 00:21:46;;;;;;;;;;;;;;;23.29;59.26;99827.06;2078998;28;20120;-42
2021/07/13 00:22:46;;;;;;;;;;;;;;;23.28;59.40;99820.72;2082280;28;19908;-43
2021/07/13 00:23:46;;;;;;;;;;;;;;;23.28;59.40;99817.13;2084438;28;20386;-43
2021/07/13 00:24:47;;;;;;;;;;;;;;;23.27;59.43;99826.38;2080544;28;20248;-42
2021/07/13 00:25:47;;;;;;;;;;;;;;;23.27;59.33;99824.50;2079429;28;19924;-42
2021/07/13 00:26:47;;;;;;;;;;;;;;;23.28;59.26;99828.09;2084051;28;19920;-42
2021/07/13 00:27:48;;;;;;;;;;;;;;;23.27;59.45;99824.50;2083473;28;19916;-42
2021/07/13 00:28:48;;;;;;;;;;;;;;;23.27;59.30;99821.75;2083806;28;20308;-43
2021/07/13 00:29:48;;;;;;;;;;;;;;;23.27;59.34;99815.38;2082758;28;19917;-42
2021/07/13 00:30:49;;;;;;;;;;;;;;;23.26;59.34;99819.19;2078971;28;19963;-42
2021/07/13 00:31:49;;;;;;;;;;;;;;;23.26;59.26;99810.94;2083525;28;19958;-42
2021/07/13 00:32:50;;;;;;;;;;;;;;;23.26;59.25;99819.19;2084262;28;19921;-43
2021/07/13 00:33:50;;;;;;;;;;;;;;;23.25;59.37;99814.72;2081172;28;19998;-42
2021/07/13 00:34:51;;;;;;;;;;;;;;;23.25;59.28;99810.09;2079188;28;20112;-42
2021/07/13 00:35:51;;;;;;;;;;;;;;;23.26;59.33;99819.19;2076970;28;19912;-42
2021/07/13 00:36:51;;;;;;;;;;;;;;;23.24;59.39;99813.00;2079509;28;19921;-42
2021/07/13 00:37:52;;;;;;;;;;;;;;;23.25;59.36;99822.94;2077927;28;19923;-42
2021/07/13 00:38:52;;;;;;;;;;;;;;;23.25;59.42;99817.44;2082939;28;20330;-42
2021/07/13 00:39:52;;;;;;;;;;;;;;;23.26;59.34;99824.69;2086256;28;20219;-42
2021/07/13 00:40:53;;;;;;;;;;;;;;;23.25;59.40;99817.44;2077880;28;20176;-42
2021/07/13 00:41:53;;;;;;;;;;;;;;;23.24;59.41;99815.75;2079387;28;19959;-42
2021/07/13 00:42:54;;;;;;;;;;;;;;;23.25;59.29;99817.44;2086209;28;19916;-43
2021/07/13 00:43:54;;;;;;;;;;;;;;;23.24;59.25;99816.59;2083418;28;19962;-43
2021/07/13 00:44:55;;;;;;;;;;;;;;;23.25;59.17;99814.72;2083696;28;20521;-42
2021/07/13 00:45:55;;;;;;;;;;;;;;;23.24;59.30;99813.84;2082635;28;19913;-42
2021/07/13 00:46:58;;;;;;;;;;;;;;;23.24;59.26;99813.84;2084706;28;20148;-42
2021/07/13 00:47:59;;;;;;;;;;;;;;;23.23;59.24;99817.66;2077855;28;19959;-43
2021/07/13 00:49:03;;;;;;;;;;;;;;;23.24;59.37;99810.25;2080825;28;20139;-43
2021/07/13 00:50:04;;;;;;;;;;;;;;;23.23;59.38;99808.56;2077158;28;20055;-42
2021/07/13 00:51:05;;;;;;;;;;;;;;;23.21;59.24;99805.97;2082772;28;20236;-42
2021/07/13 00:52:06;;;;;;;;;;;;;;;23.21;59.40;99807.88;2078944;28;20026;-43
2021/07/13 00:53:06;;;;;;;;;;;;;;;23.21;59.42;99813.38;2081609;28;19917;-42
2021/07/13 00:54:08;;;;;;;;;;;;;;;23.21;59.38;99805.13;2083757;28;19920;-42
2021/07/13 00:55:10;;;;;;;;;;;;;;;23.20;59.34;99808.91;2078194;28;19916;-42
2021/07/13 00:56:11;;;;;;;;;;;;;;;23.19;59.28;99808.06;2082173;28;19916;-43
2021/07/13 00:57:12;;;;;;;;;;;;;;;23.19;59.30;99808.06;2085750;28;20101;-43
2021/07/13 00:58:12;;;;;;;;;;;;;;;23.20;59.45;99808.91;2086349;28;20015;-42
2021/07/13 00:59:13;;;;;;;;;;;;;;;23.19;59.28;99807.22;2084068;28;19923;-43
2021/07/13 01:00:18;;;;;;;;;;;;;;;23.19;59.31;99801.72;2077170;28;20277;-42
2021/07/13 01:01:18;;;;;;;;;;;;;;;23.19;59.35;99802.56;2083039;28;19954;-42
2021/07/13 01:02:18;;;;;;;;;;;;;;;23.19;59.32;99809.97;2084485;28;19927;-42
2021/07/13 01:03:19;;;;;;;;;;;;;;;23.19;59.26;99804.47;2082002;28;19939;-43
2021/07/13 01:04:19;;;;;;;;;;;;;;;23.18;59.42;99800.00;2082224;28;19927;-42
2021/07/13 01:05:24;;;;;;;;;;;;;;;23.19;59.27;99797.06;2085596;28;19917;-42
2021/07/13 01:06:27;;;;;;;;;;;;;;;23.19;59.35;99796.22;2086245;28;20352;-43
2021/07/13 01:07:46;;;;;;;;;;;;;;;23.18;59.35;99800.00;2089768;28;19923;-43
2021/07/13 01:09:09;;;;;;;;;;;;;;;23.19;59.39;99799.81;2077007;28;19928;-43
2021/07/13 01:10:15;;;;;;;;;;;;;;;23.17;59.38;99798.28;2077475;28;20199;-42
2021/07/13 01:11:16;;;;;;;;;;;;;;;23.17;59.13;99792.78;2084651;28;19924;-43
2021/07/13 01:12:22;;;;;;;;;;;;;;;23.17;59.34;99798.28;2083857;28;20003;-44
2021/07/13 01:13:32;;;;;;;;;;;;;;;23.17;59.37;99795.53;2092310;28;19916;-42
2021/07/13 01:14:52;;;;;;;;;;;;;;;23.17;59.26;99798.28;2084856;28;19966;-43
2021/07/13 01:16:06;;;;;;;;;;;;;;;23.17;59.36;99798.28;2082148;28;19997;-43
2021/07/13 01:17:10;;;;;;;;;;;;;;;23.17;59.33;99799.13;2084887;28;19999;-42
2021/07/13 01:18:14;;;;;;;;;;;;;;;23.17;59.20;99787.28;2083292;28;20175;-44
2021/07/13 01:19:17;;;;;;;;;;;;;;;23.15;59.36;99801.22;2082150;28;19920;-42
2021/07/13 01:20:17;;;;;;;;;;;;;;;23.15;59.21;99798.47;2084929;28;20003;-42
2021/07/13 01:21:26;;;;;;;;;;;;;;;23.17;59.22;99798.28;2084145;28;19913;-43
2021/07/13 01:22:28;;;;;;;;;;;;;;;23.15;59.29;99789.34;2084250;28;19916;-43
2021/07/13 01:23:28;;;;;;;;;;;;;;;23.16;59.29;99791.09;2084212;28;19954;-42
2021/07/13 01:24:47;;;;;;;;;;;;;;;23.15;59.27;99787.50;2081493;28;19916;-43
2021/07/13 01:26:08;;;;;;;;;;;;;;;23.14;59.23;99794.00;2085419;28;20158;-43
2021/07/13 01:27:11;;;;;;;;;;;;;;;23.15;59.19;99790.25;2076328;28;19917;-43
2021/07/13 01:28:18;;;;;;;;;;;;;;;23.16;59.29;99793.84;2080420;28;19923;-43
2021/07/13 01:29:18;;;;;;;;;;;;;;;23.15;59.14;99790.25;2083990;28;19920;-45
2021/07/13 01:30:22;;;;;;;;;;;;;;;23.15;59.20;99790.25;2084202;28;19928;-43
2021/07/13 01:31:24;;;;;;;;;;;;;;;23.15;59.19;99795.75;2082392;28;19916;-42
2021/07/13 01:32:28;;;;;;;;;;;;;;;23.15;59.22;99789.34;2085680;28;19970;-43
2021/07/13 01:33:29;;;;;;;;;;;;;;;23.15;59.22;99792.09;2076256;28;20185;-42
2021/07/13 01:34:36;;;;;;;;;;;;;;;23.15;59.25;99783.84;2082912;28;20354;-43
2021/07/13 01:35:49;;;;;;;;;;;;;;;23.15;59.30;99778.34;2079358;28;19913;-42
2021/07/13 01:36:55;;;;;;;;;;;;;;;23.15;59.11;99789.34;2080182;28;19909;-42
2021/07/13 01:37:57;;;;;;;;;;;;;;;23.13;59.19;99786.81;2083714;28;20174;-43
2021/07/13 01:38:59;;;;;;;;;;;;;;;23.14;59.22;99790.41;2081747;28;19956;-43
2021/07/13 01:40:00;;;;;;;;;;;;;;;23.13;59.21;99788.69;2085945;28;20160;-43
2021/07/13 01:41:07;;;;;;;;;;;;;;;23.14;59.19;99790.41;2082358;28;19984;-43
2021/07/13 01:42:09;;;;;;;;;;;;;;;23.14;59.14;99793.16;2082364;28;19921;-42
2021/07/13 01:43:10;;;;;;;;;;;;;;;23.13;59.24;99792.31;2086056;28;19916;-42
2021/07/13 01:44:11;;;;;;;;;;;;;;;23.13;59.23;99789.56;2079929;28;20320;-42
2021/07/13 01:45:12;;;;;;;;;;;;;;;23.14;59.14;99782.16;2082597;28;19916;-42
2021/07/13 01:46:13;;;;;;;;;;;;;;;23.13;59.12;99781.31;2081336;28;20310;-42
2021/07/13 01:47:13;;;;;;;;;;;;;;;23.13;59.17;99784.06;2082918;28;20407;-43
2021/07/13 01:48:14;;;;;;;;;;;;;;;23.13;59.31;99791.44;2078156;28;19943;-42
2021/07/13 01:49:19;;;;;;;;;;;;;;;23.13;59.08;99789.56;2081596;28;19991;-42
2021/07/13 01:50:20;;;;;;;;;;;;;;;23.14;59.17;99787.66;2079979;28;19923;-42
2021/07/13 01:51:20;;;;;;;;;;;;;;;23.13;59.20;99788.69;2085956;28;19924;-42
2021/07/13 01:52:21;;;;;;;;;;;;;;;23.11;59.08;99784.22;2080776;28;19962;-41
2021/07/13 01:53:22;;;;;;;;;;;;;;;23.13;59.09;99786.81;2074354;28;19917;-42
2021/07/13 01:54:24;;;;;;;;;;;;;;;23.13;59.17;99785.94;2084314;28;19917;-42
2021/07/13 01:55:26;;;;;;;;;;;;;;;23.12;59.17;99787.84;2082805;28;20250;-42
2021/07/13 01:56:29;;;;;;;;;;;;;;;23.13;59.16;99791.44;2077433;28;20241;-41
2021/07/13 01:57:29;;;;;;;;;;;;;;;23.12;59.22;99785.09;2081696;28;20313;-43
2021/07/13 01:58:30;;;;;;;;;;;;;;;23.11;59.21;99784.22;2085749;28;20208;-42
2021/07/13 01:59:30;;;;;;;;;;;;;;;23.11;59.10;99789.72;2083924;28;19920;-43
2021/07/13 02:00:31;;;;;;;;;;;;;;;23.12;59.02;99785.09;2085308;28;19916;-43
2021/07/13 02:01:32;;;;;;;;;;;;;;;23.11;59.18;99780.63;2077108;28;19952;-42
2021/07/13 02:02:34;;;;;;;;;;;;;;;23.11;59.19;99786.97;2079213;28;19913;-42
2021/07/13 02:03:34;;;;;;;;;;;;;;;23.10;59.00;99782.53;2086075;28;19916;-42
2021/07/13 02:04:36;;;;;;;;;;;;;;;23.11;59.03;99781.47;2081165;28;19963;-42
2021/07/13 02:05:38;;;;;;;;;;;;;;;23.11;59.10;99780.63;2086019;28;20385;-42
2021/07/13 02:06:41;;;;;;;;;;;;;;;23.10;59.01;99782.53;2077132;28;19909;-42
2021/07/13 02:07:42;;;;;;;;;;;;;;;23.09;59.13;99778.06;2079426;28;19916;-42
2021/07/13 02:08:43;;;;;;;;;;;;;;;23.10;59.00;99777.03;2085750;28;20438;-42
2021/07/13 02:09:44;;;;;;;;;;;;;;;23.10;59.10;99777.03;2082585;28;20592;-43
2021/07/13 02:10:44;;;;;;;;;;;;;;;23.09;58.99;99780.81;2085342;28;20274;-42
2021/07/13 02:11:45;;;;;;;;;;;;;;;23.10;59.10;99776.16;2083218;28;20315;-42
2021/07/13 02:12:45;;;;;;;;;;;;;;;23.08;59.02;99779.09;2083066;28;20449;-42
2021/07/13 02:13:46;;;;;;;;;;;;;;;23.09;59.08;99775.31;2084579;28;19916;-43
2021/07/13 02:14:46;;;;;;;;;;;;;;;23.08;59.00;99779.09;2082499;28;19955;-42
2021/07/13 02:15:46;;;;;;;;;;;;;;;23.08;59.03;99772.75;2081089;28;19917;-42
2021/07/13 02:16:47;;;;;;;;;;;;;;;23.09;59.01;99780.81;2081471;28;20093;-42
2021/07/13 02:17:51;;;;;;;;;;;;;;;23.09;59.13;99779.97;2084444;28;20015;-42
2021/07/13 02:18:51;;;;;;;;;;;;;;;23.08;58.92;99773.63;2078728;28;19919;-42
2021/07/13 02:19:51;;;;;;;;;;;;;;;23.07;59.11;99777.38;2084829;28;19908;-42
2021/07/13 02:20:52;;;;;;;;;;;;;;;23.08;59.06;99773.63;2084981;28;19908;-42
2021/07/13 02:21:52;;;;;;;;;;;;;;;23.08;58.95;99772.75;2078148;28;19909;-42
2021/07/13 02:22:53;;;;;;;;;;;;;;;23.07;59.05;99771.88;2080029;28;20236;-40
2021/07/13 02:23:53;;;;;;;;;;;;;;;23.07;59.08;99780.13;2077392;28;19913;-42
2021/07/13 02:24:53;;;;;;;;;;;;;;;23.07;59.11;99771.88;2084047;28;19916;-42
2021/07/13 02:25:55;;;;;;;;;;;;;;;23.07;59.19;99774.63;2083616;28;19948;-42
2021/07/13 02:27:03;;;;;;;;;;;;;;;23.08;58.97;99773.63;2079627;28;19928;-42
2021/07/13 02:28:10;;;;;;;;;;;;;;;23.06;58.97;99775.69;2081557;28;20007;-43
2021/07/13 02:29:13;;;;;;;;;;;;;;;23.06;59.14;99778.44;2078663;28;20050;-42
2021/07/13 02:30:14;;;;;;;;;;;;;;;23.06;58.88;99775.69;2081442;28;20309;-43
2021/07/13 02:31:17;;;;;;;;;;;;;;;23.07;58.99;99773.78;2079321;28;19967;-42
2021/07/13 02:32:38;;;;;;;;;;;;;;;23.07;58.88;99780.13;2085113;28;20151;-42
2021/07/13 02:34:05;;;;;;;;;;;;;;;23.06;58.99;99775.69;2080432;28;19916;-42
2021/07/13 02:35:06;;;;;;;;;;;;;;;23.06;58.94;99781.19;2081524;28;19967;-43
2021/07/13 02:36:10;;;;;;;;;;;;;;;23.07;58.99;99779.28;2079320;28;20307;-42
2021/07/13 02:37:15;;;;;;;;;;;;;;;23.06;58.87;99778.44;2085663;28;19913;-42
2021/07/13 02:38:15;;;;;;;;;;;;;;;23.06;58.99;99774.84;2084768;28;19923;-42
2021/07/13 02:39:18;;;;;;;;;;;;;;;23.05;59.05;99779.47;2085261;28;20759;-43
2021/07/13 02:40:18;;;;;;;;;;;;;;;23.07;58.95;99780.13;2082505;28;19978;-42
2021/07/13 02:41:19;;;;;;;;;;;;;;;23.05;58.91;99774.00;2084617;28;20255;-42
2021/07/13 02:42:19;;;;;;;;;;;;;;;23.06;58.92;99774.84;2080769;28;20281;-42
2021/07/13 02:43:21;;;;;;;;;;;;;;;23.05;59.02;99768.50;2085946;28;19922;-44
2021/07/13 02:44:22;;;;;;;;;;;;;;;23.05;58.94;99771.25;2082856;28;20228;-42
2021/07/13 02:45:23;;;;;;;;;;;;;;;23.05;58.99;99775.84;2083214;28;20135;-43
2021/07/13 02:46:26;;;;;;;;;;;;;;;23.05;59.00;99774.00;2078217;28;19936;-42
2021/07/13 02:47:27;;;;;;;;;;;;;;;23.05;58.88;99773.09;2083395;28;20335;-43
2021/07/13 02:48:28;;;;;;;;;;;;;;;23.04;58.93;99769.50;2079319;28;20132;-42
2021/07/13 02:49:31;;;;;;;;;;;;;;;23.04;58.89;99769.50;2080309;28;20151;-43
2021/07/13 02:50:31;;;;;;;;;;;;;;;23.04;58.89;99772.25;2084137;28;20315;-42
2021/07/13 02:51:32;;;;;;;;;;;;;;;23.04;58.89;99764.00;2077977;28;20215;-42
2021/07/13 02:52:33;;;;;;;;;;;;;;;23.05;58.91;99768.50;2077297;28;20002;-42
2021/07/13 02:53:34;;;;;;;;;;;;;;;23.03;59.01;99773.31;2081971;28;19917;-43
2021/07/13 02:54:36;;;;;;;;;;;;;;;23.04;58.85;99772.25;2085869;28;20023;-42
2021/07/13 02:55:37;;;;;;;;;;;;;;;23.04;58.83;99772.25;2084719;28;19912;-42
2021/07/13 02:56:39;;;;;;;;;;;;;;;23.04;58.92;99772.25;2082463;28;19960;-42
2021/07/13 02:57:40;;;;;;;;;;;;;;;23.05;58.90;99763.00;2079669;28;19966;-42
2021/07/13 02:58:40;;;;;;;;;;;;;;;23.05;58.89;99765.75;2077232;28;20347;-41
2021/07/13 02:59:42;;;;;;;;;;;;;;;23.04;58.93;99760.41;2086371;28;20011;-42
2021/07/13 03:00:42;;;;;;;;;;;;;;;23.03;58.94;99759.56;2079766;28;19917;-42
2021/07/13 03:01:44;;;;;;;;;;;;;;;23.03;58.91;99759.56;2081625;28;19962;-42
2021/07/13 03:02:46;;;;;;;;;;;;;;;23.03;58.82;99758.72;2083226;28;20076;-43
2021/07/13 03:03:47;;;;;;;;;;;;;;;23.03;58.87;99747.72;2085290;28;20244;-42
2021/07/13 03:04:51;;;;;;;;;;;;;;;23.04;58.84;99755.75;2082513;28;20134;-42
2021/07/13 03:05:52;;;;;;;;;;;;;;;23.03;58.92;99756.81;2079250;28;19967;-42
2021/07/13 03:06:53;;;;;;;;;;;;;;;23.03;58.92;99745.81;2082434;28;20191;-41
2021/07/13 03:07:54;;;;;;;;;;;;;;;23.02;58.88;99741.34;2082252;28;20250;-42
2021/07/13 03:08:54;;;;;;;;;;;;;;;23.01;58.87;99750.66;2083998;28;19919;-42
2021/07/13 03:09:55;;;;;;;;;;;;;;;23.02;58.84;99752.34;2087157;28;19916;-42
2021/07/13 03:10:56;;;;;;;;;;;;;;;23.01;58.93;99750.66;2080523;28;19917;-45
2021/07/13 03:11:56;;;;;;;;;;;;;;;23.02;58.86;99749.59;2082495;28;19920;-43
2021/07/13 03:12:57;;;;;;;;;;;;;;;23.02;58.99;99741.34;2081862;28;20279;-42
2021/07/13 03:13:58;;;;;;;;;;;;;;;23.02;58.93;99752.34;2080279;28;19912;-42
2021/07/13 03:14:59;;;;;;;;;;;;;;;23.02;58.75;99741.34;2078332;28;20262;-42
2021/07/13 03:16:00;;;;;;;;;;;;;;;23.02;58.81;99751.50;2081251;28;20252;-42
2021/07/13 03:17:01;;;;;;;;;;;;;;;23.02;58.88;99751.50;2079433;28;20346;-42
2021/07/13 03:18:02;;;;;;;;;;;;;;;23.01;58.79;99745.16;2085008;28;20761;-43
2021/07/13 03:19:03;;;;;;;;;;;;;;;23.02;58.88;99737.75;2082788;28;20240;-42
2021/07/13 03:20:04;;;;;;;;;;;;;;;23.01;58.85;99742.41;2083985;28;20249;-42
2021/07/13 03:21:04;;;;;;;;;;;;;;;23.01;58.77;99745.16;2080984;28;20665;-43
2021/07/13 03:22:08;;;;;;;;;;;;;;;23.02;58.73;99740.50;2083109;28;20112;-42
2021/07/13 03:23:09;;;;;;;;;;;;;;;23.01;58.78;99747.91;2084692;28;19916;-43
2021/07/13 03:24:11;;;;;;;;;;;;;;;23.01;58.89;99739.66;2084191;28;20341;-42
2021/07/13 03:25:15;;;;;;;;;;;;;;;23.01;58.62;99739.66;2084615;28;19942;-42
2021/07/13 03:26:15;;;;;;;;;;;;;;;23.01;58.84;99739.66;2080655;28;20553;-42
2021/07/13 03:27:16;;;;;;;;;;;;;;;23.01;58.88;99736.91;2085639;28;20291;-42
2021/07/13 03:28:17;;;;;;;;;;;;;;;23.01;58.83;99750.66;2085461;28;20290;-42
2021/07/13 03:29:17;;;;;;;;;;;;;;;23.01;58.73;99736.91;2083916;28;19916;-43
2021/07/13 03:30:18;;;;;;;;;;;;;;;23.00;58.86;99740.66;2084348;28;19913;-42
2021/07/13 03:31:18;;;;;;;;;;;;;;;23.00;58.76;99746.16;2079980;28;20327;-42
2021/07/13 03:32:20;;;;;;;;;;;;;;;23.01;58.70;99739.66;2083199;28;19916;-42
2021/07/13 03:33:21;;;;;;;;;;;;;;;23.00;58.79;99740.66;2086429;28;19912;-43
2021/07/13 03:34:21;;;;;;;;;;;;;;;23.00;58.78;99737.91;2083677;28;20347;-42
2021/07/13 03:35:22;;;;;;;;;;;;;;;23.01;58.86;99738.81;2083626;28;19943;-42
2021/07/13 03:36:22;;;;;;;;;;;;;;;23.00;58.83;99742.56;2079726;28;20137;-43
2021/07/13 03:37:23;;;;;;;;;;;;;;;23.00;58.68;99748.91;2085988;28;20318;-42
2021/07/13 03:38:23;;;;;;;;;;;;;;;23.00;58.69;99737.91;2083796;28;19913;-42
2021/07/13 03:39:25;;;;;;;;;;;;;;;23.00;58.88;99737.06;2085056;28;19912;-42
2021/07/13 03:40:27;;;;;;;;;;;;;;;23.00;58.73;99737.06;2080179;28;20119;-43
2021/07/13 03:41:29;;;;;;;;;;;;;;;22.98;58.88;99734.53;2079544;28;19971;-42
2021/07/13 03:42:29;;;;;;;;;;;;;;;22.98;58.77;99734.53;2084523;28;20384;-42
2021/07/13 03:43:29;;;;;;;;;;;;;;;22.98;58.83;99729.03;2083136;28;20068;-41
2021/07/13 03:44:30;;;;;;;;;;;;;;;22.98;58.82;99729.03;2085365;28;19948;-42
2021/07/13 03:45:30;;;;;;;;;;;;;;;22.98;58.71;99734.53;2082374;28;19955;-42
2021/07/13 03:46:34;;;;;;;;;;;;;;;22.99;58.83;99735.38;2084859;28;20140;-46
2021/07/13 03:47:35;;;;;;;;;;;;;;;22.99;58.71;99733.47;2083389;28;20035;-42
2021/07/13 03:48:36;;;;;;;;;;;;;;;22.98;58.74;99740.03;2079287;28;19923;-42
2021/07/13 03:49:36;;;;;;;;;;;;;;;22.98;58.79;99744.63;2085397;28;19958;-42
2021/07/13 03:50:38;;;;;;;;;;;;;;;22.96;58.80;99725.56;2085372;28;19916;-42
2021/07/13 03:51:42;;;;;;;;;;;;;;;22.97;58.87;99740.16;2080907;28;19940;-42
2021/07/13 03:52:43;;;;;;;;;;;;;;;22.96;58.66;99742.06;2083360;28;19978;-41
2021/07/13 03:53:43;;;;;;;;;;;;;;;22.96;58.76;99741.22;2079162;28;20115;-42
2021/07/13 03:54:43;;;;;;;;;;;;;;;22.96;58.73;99725.56;2086569;28;20283;-43
2021/07/13 03:55:44;;;;;;;;;;;;;;;22.96;58.73;99728.31;2081684;28;19917;-42
2021/07/13 03:56:46;;;;;;;;;;;;;;;22.96;58.70;99730.22;2079368;28;19927;-42
2021/07/13 03:57:46;;;;;;;;;;;;;;;22.96;58.80;99733.81;2078538;28;20016;-42
2021/07/13 03:58:46;;;;;;;;;;;;;;;22.95;58.89;99732.09;2079796;28;20400;-42
2021/07/13 03:59:47;;;;;;;;;;;;;;;22.96;58.83;99733.81;2077075;28;20583;-41
2021/07/13 04:00:47;;;;;;;;;;;;;;;22.97;58.87;99737.41;2081243;28;20233;-42
2021/07/13 04:01:49;;;;;;;;;;;;;;;22.96;58.67;99731.06;2087476;28;19919;-42
2021/07/13 04:02:49;;;;;;;;;;;;;;;22.97;58.79;99732.78;2085020;28;20255;-42
2021/07/13 04:03:49;;;;;;;;;;;;;;;22.96;58.76;99731.06;2085211;28;20385;-41
2021/07/13 04:04:50;;;;;;;;;;;;;;;22.96;58.74;99733.81;2086227;28;20234;-42
2021/07/13 04:05:50;;;;;;;;;;;;;;;22.97;58.69;99727.28;2084434;28;20305;-43
2021/07/13 04:06:50;;;;;;;;;;;;;;;22.96;58.71;99731.06;2078971;28;19904;-42
2021/07/13 04:07:51;;;;;;;;;;;;;;;22.96;58.67;99742.06;2082446;28;20334;-42
2021/07/13 04:08:51;;;;;;;;;;;;;;;22.96;58.84;99733.81;2085250;28;20511;-42
2021/07/13 04:09:51;;;;;;;;;;;;;;;22.96;58.77;99735.72;2085804;28;19919;-43
2021/07/13 04:10:51;;;;;;;;;;;;;;;22.95;58.73;99734.84;2078944;28;20244;-44
2021/07/13 04:11:52;;;;;;;;;;;;;;;22.96;58.73;99732.97;2078229;28;20156;-43
2021/07/13 04:12:52;;;;;;;;;;;;;;;22.96;58.73;99741.22;2083805;28;19959;-44
2021/07/13 04:13:52;;;;;;;;;;;;;;;22.95;58.79;99729.34;2093723;28;19947;-42
2021/07/13 04:14:53;;;;;;;;;;;;;;;22.95;58.81;99729.34;2084130;28;19927;-42
2021/07/13 04:15:53;;;;;;;;;;;;;;;22.95;58.77;99729.34;2085471;28;19913;-42
2021/07/13 04:16:53;;;;;;;;;;;;;;;22.95;58.69;99739.50;2086930;28;19908;-42
2021/07/13 04:17:54;;;;;;;;;;;;;;;22.95;58.70;99729.34;2079650;28;19917;-43
2021/07/13 04:18:54;;;;;;;;;;;;;;;22.95;58.77;99734.84;2079359;28;19923;-42
2021/07/13 04:19:54;;;;;;;;;;;;;;;22.95;58.75;99736.75;2079677;28;19916;-42
2021/07/13 04:20:55;;;;;;;;;;;;;;;22.94;58.63;99730.41;2082231;28;20382;-42
2021/07/13 04:21:55;;;;;;;;;;;;;;;22.94;58.79;99733.16;2078493;28;19916;-42
2021/07/13 04:22:55;;;;;;;;;;;;;;;22.95;58.77;99737.59;2080374;28;19916;-42
2021/07/13 04:23:56;;;;;;;;;;;;;;;22.94;58.71;99730.41;2078858;28;20346;-42
2021/07/13 04:24:56;;;;;;;;;;;;;;;22.95;58.72;99723.00;2085182;28;19920;-40
2021/07/13 04:25:57;;;;;;;;;;;;;;;22.93;58.78;99728.69;2084524;28;19927;-42
2021/07/13 04:26:57;;;;;;;;;;;;;;;22.94;58.69;99726.78;2084642;28;20591;-42
2021/07/13 04:27:57;;;;;;;;;;;;;;;22.94;58.80;99724.91;2085680;28;19916;-42
2021/07/13 04:28:58;;;;;;;;;;;;;;;22.94;58.69;99730.41;2085514;28;20115;-42
2021/07/13 04:29:58;;;;;;;;;;;;;;;22.93;58.72;99728.69;2085160;28;20248;-43
2021/07/13 04:31:00;;;;;;;;;;;;;;;22.94;58.78;99730.41;2085195;28;20230;-42
2021/07/13 04:32:00;;;;;;;;;;;;;;;22.93;58.74;99736.94;2084200;28;20115;-42
2021/07/13 04:33:01;;;;;;;;;;;;;;;22.92;58.69;99735.22;2083652;28;20329;-42
2021/07/13 04:34:07;;;;;;;;;;;;;;;22.93;58.80;99730.56;2079535;28;20225;-42
2021/07/13 04:35:08;;;;;;;;;;;;;;;22.92;58.84;99739.88;2076696;28;19917;-42
2021/07/13 04:36:09;;;;;;;;;;;;;;;22.92;58.68;99735.22;2081072;28;19916;-41
2021/07/13 04:37:09;;;;;;;;;;;;;;;22.93;58.89;99736.06;2085269;28;20518;-42
2021/07/13 04:38:10;;;;;;;;;;;;;;;22.93;58.77;99747.94;2080079;28;19917;-42
2021/07/13 04:39:10;;;;;;;;;;;;;;;22.93;58.71;99736.94;2083510;28;19916;-42
2021/07/13 04:40:11;;;;;;;;;;;;;;;22.93;58.84;99745.19;2082923;28;19923;-42
2021/07/13 04:41:11;;;;;;;;;;;;;;;22.92;58.76;99743.47;2085275;28;19917;-42
2021/07/13 04:42:12;;;;;;;;;;;;;;;22.93;58.78;99747.06;2081601;28;20282;-43
2021/07/13 04:43:12;;;;;;;;;;;;;;;22.92;58.81;99743.47;2083028;28;20661;-42
2021/07/13 04:44:13;;;;;;;;;;;;;;;22.91;58.65;99750.00;2083873;28;20199;-41
2021/07/13 04:45:13;;;;;;;;;;;;;;;22.92;58.63;99740.72;2083396;28;19921;-41
2021/07/13 04:46:13;;;;;;;;;;;;;;;22.92;58.68;99746.22;2085721;28;20278;-42
2021/07/13 04:47:13;;;;;;;;;;;;;;;22.92;58.72;99748.97;2081518;28;19916;-41
2021/07/13 04:48:14;;;;;;;;;;;;;;;22.90;58.54;99754.63;2083673;28;20632;-42
2021/07/13 04:49:14;;;;;;;;;;;;;;;22.91;58.86;99755.50;2083735;28;20015;-42
2021/07/13 04:50:14;;;;;;;;;;;;;;;22.93;58.54;99755.31;2081594;28;19917;-41
2021/07/13 04:51:15;;;;;;;;;;;;;;;22.93;58.61;99756.19;2080575;28;20253;-42
2021/07/13 04:52:15;;;;;;;;;;;;;;;22.92;58.77;99740.72;2082977;28;19912;-43
2021/07/13 04:53:15;;;;;;;;;;;;;;;22.92;58.75;99751.69;2085001;28;19940;-42
2021/07/13 04:54:16;;;;;;;;;;;;;;;22.91;58.72;99752.75;2085288;28;20021;-42
2021/07/13 04:55:19;;;;;;;;;;;;;;;22.91;58.58;99744.50;2084742;28;20250;-43
2021/07/13 04:56:19;;;;;;;;;;;;;;;22.91;58.65;99755.50;2086646;28;20037;-42
2021/07/13 04:57:19;;;;;;;;;;;;;;;22.91;58.70;99750.00;2085969;28;20434;-42
2021/07/13 04:58:20;;;;;;;;;;;;;;;22.92;58.73;99754.44;2078209;28;19916;-42
2021/07/13 04:59:20;;;;;;;;;;;;;;;22.91;58.63;99750.00;2077218;28;20251;-42
2021/07/13 05:00:20;;;;;;;;;;;;;;;22.89;58.69;99743.84;2078479;28;19909;-42
2021/07/13 05:01:21;;;;;;;;;;;;;;;22.92;58.78;99746.22;2079066;28;19913;-42
2021/07/13 05:02:21;;;;;;;;;;;;;;;22.91;58.72;99755.50;2079696;28;20299;-42
2021/07/13 05:03:21;;;;;;;;;;;;;;;22.90;58.67;99749.13;2086366;28;19916;-42
2021/07/13 05:04:22;;;;;;;;;;;;;;;22.92;58.77;99753.59;2080260;28;19928;-42
2021/07/13 05:05:22;;;;;;;;;;;;;;;22.90;58.70;99749.13;2078351;28;19916;-42
2021/07/13 05:06:22;;;;;;;;;;;;;;;22.91;58.62;99755.50;2084840;28;19932;-42
2021/07/13 05:07:23;;;;;;;;;;;;;;;22.91;58.52;99758.25;2084701;28;19916;-41
2021/07/13 05:08:24;;;;;;;;;;;;;;;22.90;58.76;99756.53;2076071;28;19989;-42
2021/07/13 05:09:25;;;;;;;;;;;;;;;22.90;58.74;99749.13;2079554;28;20392;-42
2021/07/13 05:10:26;;;;;;;;;;;;;;;22.92;58.61;99757.19;2079267;28;19942;-41
2021/07/13 05:11:26;;;;;;;;;;;;;;;22.92;58.86;99750.84;2081778;28;19920;-47
2021/07/13 05:12:26;;;;;;;;;;;;;;;22.90;58.76;99748.28;2087981;28;19924;-43
2021/07/13 05:13:27;;;;;;;;;;;;;;;22.91;58.68;99752.75;2092694;28;19916;-44
2021/07/13 05:14:27;;;;;;;;;;;;;;;22.93;58.77;99749.81;2082287;28;19964;-44
2021/07/13 05:15:28;;;;;;;;;;;;;;;22.93;58.66;99747.94;2078325;28;19913;-44
2021/07/13 05:16:28;;;;;;;;;;;;;;;22.93;58.70;99747.94;2079279;28;19928;-42
2021/07/13 05:17:29;;;;;;;;;;;;;;;22.95;58.67;99745.84;2078320;28;20129;-43
2021/07/13 05:18:29;;;;;;;;;;;;;;;22.95;58.67;99753.22;2083055;28;19927;-43
2021/07/13 05:19:32;;;;;;;;;;;;;;;22.94;58.56;99762.53;2080659;28;20674;-43
2021/07/13 05:20:32;;;;;;;;;;;;;;;22.92;58.75;99751.69;2076838;28;19921;-43
2021/07/13 05:21:33;;;;;;;;;;;;;;;22.93;58.83;99758.94;2080205;28;19938;-43